Time;durP1;ratioP1;P1;durP2;ratioP2;P2;SDS_P1;SDS_P2;PMS_P1;PMS_P2;Temp;Humidity;BMP_temperature;BMP_pressure;BME280_temperature;BME280_humidity;BME280_pressure;Samples;Min_cycle;Max_cycle;Signal;HPM_P1;HPM_P2
2022/04/09 00:00:09;;;;;;;0.70;0.60;;;1.60;99.90;;;;;;5052470;28;20201;-73
2022/04/09 00:02:36;;;;;;;0.80;0.70;;;1.50;99.90;;;;;;5054114;28;20292;-74
2022/04/09 00:05:03;;;;;;;0.80;0.60;;;1.50;99.90;;;;;;5053877;28;20669;-73
2022/04/09 00:07:30;;;;;;;0.80;0.70;;;1.50;99.90;;;;;;5052719;28;20231;-74
2022/04/09 00:09:58;;;;;;;0.80;0.60;;;1.50;99.90;;;;;;5052760;28;20640;-73
2022/04/09 00:12:25;;;;;;;0.70;0.60;;;1.50;99.90;;;;;;5053252;28;20565;-73
2022/04/09 00:14:52;;;;;;;0.70;0.60;;;1.50;99.90;;;;;;5052838;28;20229;-72
2022/04/09 00:17:19;;;;;;;0.73;0.60;;;1.50;99.90;;;;;;5052130;28;20225;-73
2022/04/09 00:19:45;;;;;;;1.35;0.65;;;1.50;99.90;;;;;;5052952;28;20206;-73
2022/04/09 00:22:12;;;;;;;0.70;0.60;;;1.60;99.90;;;;;;5052761;28;20263;-73
2022/04/09 00:24:39;;;;;;;0.90;0.70;;;1.60;99.90;;;;;;5052807;28;20205;-74
2022/04/09 00:27:07;;;;;;;0.80;0.70;;;1.60;99.90;;;;;;5051896;28;20624;-73
2022/04/09 00:29:34;;;;;;;0.88;0.80;;;1.60;99.90;;;;;;5052487;28;20212;-74
2022/04/09 00:32:00;;;;;;;0.88;0.70;;;1.60;99.90;;;;;;5052814;28;20586;-74
2022/04/09 00:34:27;;;;;;;0.90;0.70;;;1.60;99.90;;;;;;5052425;28;20225;-73
2022/04/09 00:36:54;;;;;;;0.95;0.85;;;1.60;99.90;;;;;;5052147;28;20221;-74
2022/04/09 00:39:21;;;;;;;0.73;0.60;;;1.60;99.90;;;;;;5052238;28;20205;-73
2022/04/09 00:41:49;;;;;;;1.08;0.90;;;1.60;99.90;;;;;;5052615;28;20564;-73
2022/04/09 00:44:18;;;;;;;0.80;0.70;;;1.60;99.90;;;;;;5052354;28;20259;-73
2022/04/09 00:46:45;;;;;;;0.98;0.80;;;1.60;99.90;;;;;;5051780;28;20283;-72
2022/04/09 00:49:12;;;;;;;1.00;0.90;;;1.70;99.90;;;;;;5052340;28;20201;-73
2022/04/09 00:51:41;;;;;;;0.80;0.80;;;1.70;99.90;;;;;;5052066;28;20209;-74
2022/04/09 00:54:11;;;;;;;1.38;0.90;;;1.70;99.90;;;;;;5052167;28;20221;-74
2022/04/09 00:56:38;;;;;;;0.90;0.70;;;1.70;99.90;;;;;;5050786;28;20221;-74
2022/04/09 00:59:07;;;;;;;0.80;0.70;;;1.70;99.90;;;;;;5051903;28;20216;-73
2022/04/09 01:01:35;;;;;;;1.38;0.88;;;1.60;99.90;;;;;;5052340;28;20255;-73
2022/04/09 01:04:07;;;;;;;0.80;0.70;;;1.70;99.90;;;;;;5051803;28;20564;-72
2022/04/09 01:06:34;;;;;;;0.82;0.80;;;1.70;99.90;;;;;;5051910;28;20300;-73
2022/04/09 01:09:01;;;;;;;1.20;0.90;;;1.70;99.90;;;;;;5051057;28;20688;-72
2022/04/09 01:11:29;;;;;;;0.90;0.80;;;1.70;99.90;;;;;;5052060;28;20212;-73
2022/04/09 01:13:56;;;;;;;1.05;0.95;;;1.70;99.90;;;;;;5052184;28;20205;-73
2022/04/09 01:16:24;;;;;;;2.08;1.17;;;1.70;99.90;;;;;;5051843;28;20260;-73
2022/04/09 01:18:52;;;;;;;1.20;1.08;;;1.70;99.90;;;;;;5051241;28;20365;-73
2022/04/09 01:21:19;;;;;;;1.10;1.00;;;1.70;99.90;;;;;;5051484;28;20201;-73
2022/04/09 01:23:47;;;;;;;1.30;1.20;;;1.70;99.90;;;;;;5051777;28;20792;-72
2022/04/09 01:26:15;;;;;;;1.23;1.13;;;1.70;99.90;;;;;;5051217;28;20225;-73
2022/04/09 01:28:42;;;;;;;1.40;1.30;;;1.70;99.90;;;;;;5050963;28;20205;-72
2022/04/09 01:31:08;;;;;;;1.17;1.00;;;1.70;99.90;;;;;;5051140;28;20201;-72
2022/04/09 01:33:35;;;;;;;1.42;1.20;;;1.70;99.90;;;;;;5051633;28;20275;-72
2022/04/09 01:36:02;;;;;;;1.30;1.20;;;1.70;99.90;;;;;;5051111;28;20312;-73
2022/04/09 01:38:29;;;;;;;2.25;1.38;;;1.70;99.90;;;;;;5050454;28;20672;-73
2022/04/09 01:40:57;;;;;;;1.67;1.50;;;1.70;99.90;;;;;;5051290;28;20205;-73
2022/04/09 01:43:23;;;;;;;1.60;1.40;;;1.80;99.90;;;;;;5050917;28;20611;-73
2022/04/09 01:45:50;;;;;;;1.80;1.70;;;1.80;99.90;;;;;;5051159;28;20221;-73
2022/04/09 01:48:17;;;;;;;1.77;1.67;;;1.80;99.90;;;;;;5050269;28;20205;-72
2022/04/09 01:50:43;;;;;;;1.60;1.50;;;1.80;99.90;;;;;;5051132;28;20676;-74
2022/04/09 01:53:10;;;;;;;1.92;1.83;;;1.80;99.90;;;;;;5050963;28;20653;-73
2022/04/09 01:55:37;;;;;;;3.95;1.80;;;1.80;99.90;;;;;;5050595;28;20731;-72
2022/04/09 01:58:06;;;;;;;1.70;1.60;;;1.80;99.90;;;;;;5050143;28;20209;-72
2022/04/09 02:00:33;;;;;;;3.20;1.77;;;1.80;99.90;;;;;;5050777;28;20205;-72
2022/04/09 02:02:59;;;;;;;2.13;1.80;;;1.80;99.90;;;;;;5051528;28;20205;-72
2022/04/09 02:05:26;;;;;;;2.50;1.90;;;1.80;99.90;;;;;;5050729;28;20631;-73
2022/04/09 02:07:53;;;;;;;2.35;2.13;;;1.80;99.90;;;;;;5050124;28;20568;-73
2022/04/09 02:10:20;;;;;;;2.15;1.95;;;1.80;99.90;;;;;;5051052;28;20539;-73
2022/04/09 02:12:47;;;;;;;2.25;2.05;;;1.90;99.90;;;;;;5050472;28;20205;-73
2022/04/09 02:15:17;;;;;;;3.45;2.33;;;1.90;99.90;;;;;;5050514;28;20253;-73
2022/04/09 02:17:45;;;;;;;2.22;2.03;;;1.90;99.90;;;;;;5050267;28;20201;-72
2022/04/09 02:20:15;;;;;;;2.40;2.20;;;2.00;99.90;;;;;;5050599;28;20209;-73
2022/04/09 02:22:43;;;;;;;2.40;2.20;;;1.90;99.90;;;;;;5050546;28;20208;-74
2022/04/09 02:25:12;;;;;;;2.88;2.55;;;2.00;99.90;;;;;;5050453;28;20209;-73
2022/04/09 02:27:38;;;;;;;2.47;2.20;;;2.00;99.90;;;;;;5049836;28;20739;-73
2022/04/09 02:30:07;;;;;;;3.15;2.75;;;2.00;99.90;;;;;;5050285;28;20205;-73
2022/04/09 02:32:46;;;;;;;2.90;2.60;;;2.00;99.90;;;;;;5050749;28;20200;-73
2022/04/09 02:35:13;;;;;;;2.95;2.55;;;2.00;99.90;;;;;;5049948;28;20224;-72
2022/04/09 02:37:40;;;;;;;3.55;2.90;;;2.00;99.90;;;;;;5049897;28;20217;-73
2022/04/09 02:40:07;;;;;;;3.60;3.17;;;2.00;99.90;;;;;;5049961;28;20209;-73
2022/04/09 02:42:36;;;;;;;3.20;2.88;;;2.00;99.90;;;;;;5050549;28;20201;-73
2022/04/09 02:45:04;;;;;;;4.18;3.22;;;2.00;99.90;;;;;;5050255;28;20219;-73
2022/04/09 02:47:31;;;;;;;2.50;2.20;;;2.10;99.90;;;;;;5049559;28;20229;-73
2022/04/09 02:49:59;;;;;;;3.47;2.97;;;2.00;99.90;;;;;;5050376;28;20201;-72
2022/04/09 02:52:27;;;;;;;2.38;2.17;;;2.00;99.90;;;;;;5050544;28;20204;-72
2022/04/09 02:54:54;;;;;;;3.83;2.70;;;2.00;99.90;;;;;;5050422;28;20221;-72
2022/04/09 02:57:20;;;;;;;3.17;2.90;;;2.00;99.90;;;;;;5049722;28;20228;-73
2022/04/09 02:59:48;;;;;;;3.80;2.58;;;2.00;99.90;;;;;;5050362;28;20208;-72
2022/04/09 03:02:15;;;;;;;3.90;2.95;;;2.00;99.90;;;;;;5050150;28;20205;-72
2022/04/09 03:04:41;;;;;;;2.80;2.50;;;2.10;99.90;;;;;;5050019;28;20201;-72
2022/04/09 03:07:09;;;;;;;3.20;2.55;;;2.00;99.90;;;;;;5049434;28;20224;-72
2022/04/09 03:09:37;;;;;;;2.63;2.42;;;2.10;99.90;;;;;;5049916;28;20197;-72
2022/04/09 03:12:05;;;;;;;4.10;2.70;;;2.10;99.90;;;;;;5050021;28;20741;-72
2022/04/09 03:14:32;;;;;;;2.42;2.22;;;2.10;99.90;;;;;;5049969;28;20201;-73
2022/04/09 03:16:58;;;;;;;2.60;2.40;;;2.10;99.90;;;;;;5049287;28;20225;-72
2022/04/09 03:19:25;;;;;;;2.95;2.40;;;2.10;99.90;;;;;;5052788;28;20204;-72
2022/04/09 03:21:52;;;;;;;2.83;2.58;;;2.10;99.90;;;;;;5053849;28;20201;-74
2022/04/09 03:24:20;;;;;;;2.70;2.50;;;2.10;99.90;;;;;;5054082;28;20220;-74
2022/04/09 03:26:46;;;;;;;3.20;2.28;;;2.10;99.90;;;;;;5053061;28;20220;-74
2022/04/09 03:29:13;;;;;;;3.25;2.90;;;2.00;99.90;;;;;;5053769;28;20551;-73
2022/04/09 03:31:40;;;;;;;4.00;3.40;;;2.10;99.90;;;;;;5053696;28;20726;-73
2022/04/09 03:34:07;;;;;;;4.28;3.30;;;2.10;99.90;;;;;;5053700;28;20871;-73
2022/04/09 03:36:34;;;;;;;4.68;3.13;;;2.20;99.90;;;;;;5053500;28;20656;-74
2022/04/09 03:39:01;;;;;;;4.80;3.08;;;2.20;99.90;;;;;;5052969;28;20197;-73
2022/04/09 03:41:29;;;;;;;3.70;3.08;;;2.20;99.90;;;;;;5053811;28;20205;-73
2022/04/09 03:43:55;;;;;;;3.70;3.40;;;2.20;99.90;;;;;;5053472;28;20205;-73
2022/04/09 03:46:22;;;;;;;4.22;3.20;;;2.20;99.90;;;;;;5053480;28;20213;-73
2022/04/09 03:48:49;;;;;;;3.58;3.25;;;2.20;99.90;;;;;;5052930;28;20227;-73
2022/04/09 03:51:16;;;;;;;4.03;3.30;;;2.20;99.90;;;;;;5053394;28;20209;-73
2022/04/09 03:53:42;;;;;;;3.83;3.42;;;2.20;99.90;;;;;;5053494;28;20201;-74
2022/04/09 03:56:09;;;;;;;5.70;3.83;;;2.20;99.90;;;;;;5052747;28;20229;-73
2022/04/09 03:58:38;;;;;;;7.20;4.32;;;2.20;99.90;;;;;;5052574;28;20238;-73
2022/04/09 04:01:05;;;;;;;8.88;4.45;;;2.20;99.90;;;;;;5052679;28;20197;-73
2022/04/09 04:03:34;;;;;;;5.22;4.72;;;2.20;99.90;;;;;;5053297;28;20574;-73
2022/04/09 04:06:01;;;;;;;6.90;4.97;;;2.20;99.90;;;;;;5052690;28;20316;-73
2022/04/09 04:08:28;;;;;;;7.78;5.25;;;2.20;99.90;;;;;;5052395;28;20236;-73
2022/04/09 04:10:55;;;;;;;5.60;4.80;;;2.30;99.90;;;;;;5052936;28;20750;-73
2022/04/09 04:13:21;;;;;;;7.28;5.82;;;2.20;99.90;;;;;;5052724;28;20204;-72
2022/04/09 04:15:50;;;;;;;8.90;5.93;;;2.20;99.90;;;;;;5052779;28;20229;-74
2022/04/09 04:18:17;;;;;;;7.70;6.20;;;2.20;99.90;;;;;;5051837;28;20625;-73
2022/04/09 04:20:43;;;;;;;10.00;7.13;;;2.20;99.90;;;;;;5052874;28;20205;-73
2022/04/09 04:23:10;;;;;;;16.60;8.50;;;2.20;99.90;;;;;;5052299;28;20224;-73
2022/04/09 04:25:37;;;;;;;9.45;7.80;;;2.30;99.90;;;;;;5052144;28;20231;-73
2022/04/09 04:28:04;;;;;;;10.57;7.43;;;2.30;99.90;;;;;;5052110;28;20201;-73
2022/04/09 04:30:31;;;;;;;11.70;6.82;;;2.30;99.90;;;;;;5051121;28;20208;-73
2022/04/09 04:32:59;;;;;;;8.98;7.95;;;2.30;99.90;;;;;;5052535;28;20209;-72
2022/04/09 04:35:26;;;;;;;12.15;8.05;;;2.30;99.90;;;;;;5052077;28;20228;-74
2022/04/09 04:37:54;;;;;;;9.65;8.00;;;2.20;99.90;;;;;;5051982;28;20208;-73
2022/04/09 04:40:21;;;;;;;10.10;8.23;;;2.20;99.90;;;;;;5052481;28;20209;-73
2022/04/09 04:42:49;;;;;;;9.70;7.63;;;2.20;99.90;;;;;;5052289;28;20205;-73
2022/04/09 04:45:16;;;;;;;13.55;7.63;;;2.20;99.90;;;;;;5052333;28;20304;-73
2022/04/09 04:47:44;;;;;;;11.27;8.55;;;2.10;99.90;;;;;;5051712;28;20220;-73
2022/04/09 04:50:13;;;;;;;12.20;9.23;;;2.10;99.90;;;;;;5052354;28;20889;-73
2022/04/09 04:52:40;;;;;;;11.20;8.00;;;2.10;99.90;;;;;;5052079;28;20205;-72
2022/04/09 04:55:08;;;;;;;9.23;7.30;;;2.00;99.90;;;;;;5052042;28;20624;-73
2022/04/09 04:57:42;;;;;;;16.63;9.10;;;2.00;99.90;;;;;;5051626;28;20217;-73
2022/04/09 05:00:10;;;;;;;11.65;7.38;;;2.00;99.90;;;;;;5050791;28;20691;-73
2022/04/09 05:02:37;;;;;;;11.25;7.57;;;2.00;99.90;;;;;;5051348;28;20204;-72
2022/04/09 05:05:04;;;;;;;7.68;6.60;;;2.00;99.90;;;;;;5050679;28;20406;-73
2022/04/09 05:07:43;;;;;;;13.20;7.55;;;2.00;99.90;;;;;;5050390;28;20224;-72
2022/04/09 05:10:12;;;;;;;9.00;7.40;;;2.00;99.90;;;;;;5050455;28;20200;-72
2022/04/09 05:12:40;;;;;;;9.55;7.70;;;2.00;99.90;;;;;;5051142;28;20258;-72
2022/04/09 05:15:08;;;;;;;8.45;7.03;;;2.00;99.90;;;;;;5050560;28;20212;-72
2022/04/09 05:17:35;;;;;;;11.98;6.78;;;2.10;99.90;;;;;;5050212;28;20228;-73
2022/04/09 05:20:03;;;;;;;10.90;7.35;;;2.20;99.90;;;;;;5050851;28;20208;-73
2022/04/09 05:22:30;;;;;;;9.20;7.97;;;2.20;99.90;;;;;;5050632;28;20615;-72
2022/04/09 05:24:58;;;;;;;10.05;7.10;;;2.20;99.90;;;;;;5050639;28;20201;-72
2022/04/09 05:27:26;;;;;;;8.95;7.35;;;2.20;99.90;;;;;;5049897;28;20220;-73
2022/04/09 05:29:52;;;;;;;9.10;6.95;;;2.30;99.90;;;;;;5050656;28;20205;-72
2022/04/09 05:32:19;;;;;;;7.95;6.97;;;2.30;99.90;;;;;;5050555;28;20197;-72
2022/04/09 05:34:46;;;;;;;7.97;6.90;;;2.40;99.90;;;;;;5050345;28;20551;-73
2022/04/09 05:37:14;;;;;;;8.77;7.75;;;2.50;99.90;;;;;;5048407;28;20509;-72
2022/04/09 05:39:42;;;;;;;7.70;7.00;;;2.50;99.90;;;;;;5050172;28;20668;-72
2022/04/09 05:42:11;;;;;;;8.50;7.32;;;2.50;99.90;;;;;;5049873;28;20628;-72
2022/04/09 05:44:37;;;;;;;8.00;5.97;;;2.50;99.90;;;;;;5050081;28;20703;-72
2022/04/09 05:47:05;;;;;;;9.23;6.40;;;2.60;99.90;;;;;;5049546;28;20228;-72
2022/04/09 05:49:32;;;;;;;7.72;6.32;;;2.60;99.90;;;;;;5050359;28;20204;-72
2022/04/09 05:51:59;;;;;;;7.10;6.40;;;2.70;99.90;;;;;;5049840;28;20211;-72
2022/04/09 05:54:26;;;;;;;7.10;5.88;;;2.70;99.90;;;;;;5050405;28;20212;-72
2022/04/09 05:56:52;;;;;;;7.80;7.00;;;2.80;99.90;;;;;;5033740;22;1060901;-69
2022/04/09 05:59:20;;;;;;;8.63;6.40;;;2.80;99.90;;;;;;5070789;28;20200;-68
2022/04/09 06:01:47;;;;;;;9.30;6.45;;;2.80;99.90;;;;;;5070801;28;20203;-68
2022/04/09 06:04:19;;;;;;;7.00;5.95;;;2.80;99.90;;;;;;5070704;28;20207;-68
2022/04/09 06:06:46;;;;;;;6.97;6.25;;;2.80;99.90;;;;;;5058540;28;20213;-69
2022/04/09 06:09:12;;;;;;;7.15;6.45;;;2.70;99.90;;;;;;5050086;28;20205;-69
2022/04/09 06:11:39;;;;;;;6.85;5.55;;;2.70;99.90;;;;;;5051256;28;20212;-69
2022/04/09 06:14:06;;;;;;;9.95;6.03;;;2.70;99.90;;;;;;5051516;28;20197;-69
2022/04/09 06:16:35;;;;;;;8.38;6.07;;;2.60;99.90;;;;;;5051325;28;20735;-69
2022/04/09 06:19:02;;;;;;;9.95;5.38;;;2.60;99.90;;;;;;5051715;28;20232;-69
2022/04/09 06:21:29;;;;;;;6.82;6.07;;;2.60;99.90;;;;;;5049895;28;20208;-69
2022/04/09 06:23:56;;;;;;;8.77;5.85;;;2.60;99.90;;;;;;5050388;28;20250;-69
2022/04/09 06:26:23;;;;;;;6.47;4.82;;;2.50;99.90;;;;;;5049964;28;20316;-69
2022/04/09 06:28:50;;;;;;;7.35;5.95;;;2.60;99.90;;;;;;5049975;28;20691;-68
2022/04/09 06:31:16;;;;;;;17.50;5.60;;;2.60;99.90;;;;;;5050144;28;20201;-69
2022/04/09 06:33:44;;;;;;;6.32;5.72;;;2.70;99.90;;;;;;5050437;28;20576;-68
2022/04/09 06:36:11;;;;;;;10.73;6.68;;;2.80;99.90;;;;;;5050340;28;20225;-69
2022/04/09 06:38:38;;;;;;;7.80;5.93;;;2.90;99.90;;;;;;5048916;28;20219;-67
2022/04/09 06:41:05;;;;;;;7.93;6.07;;;2.80;99.90;;;;;;5050674;28;20672;-68
2022/04/09 06:43:31;;;;;;;7.95;6.18;;;2.90;99.90;;;;;;5050075;28;20995;-68
2022/04/09 06:45:58;;;;;;;7.78;5.90;;;3.00;99.90;;;;;;5050531;28;20227;-68
2022/04/09 06:48:25;;;;;;;8.20;7.07;;;3.10;99.90;;;;;;5050342;28;20201;-68
2022/04/09 06:50:53;;;;;;;7.80;5.82;;;3.40;99.90;;;;;;5050831;28;20212;-68
2022/04/09 06:53:20;;;;;;;8.68;5.78;;;3.50;99.90;;;;;;5051659;28;20208;-68
2022/04/09 06:55:46;;;;;;;8.13;6.00;;;3.50;99.90;;;;;;5055540;28;20730;-69
2022/04/09 06:58:13;;;;;;;8.95;6.05;;;3.50;99.90;;;;;;5050971;28;20204;-68
2022/04/09 07:00:40;;;;;;;6.35;5.68;;;3.60;99.90;;;;;;5054118;28;20204;-69
2022/04/09 07:03:07;;;;;;;7.13;6.00;;;3.60;99.90;;;;;;5052870;28;20576;-69
2022/04/09 07:05:34;;;;;;;6.75;5.88;;;3.60;99.90;;;;;;5053269;28;20296;-68
2022/04/09 07:08:03;;;;;;;6.30;5.20;;;3.70;99.90;;;;;;5053030;28;20203;-69
2022/04/09 07:10:30;;;;;;;7.10;5.47;;;3.80;99.90;;;;;;5053570;28;20209;-69
2022/04/09 07:12:57;;;;;;;5.90;4.63;;;3.70;99.90;;;;;;5053406;28;20287;-69
2022/04/09 07:15:24;;;;;;;7.60;6.13;;;3.70;99.90;;;;;;5053092;28;20296;-69
2022/04/09 07:17:51;;;;;;;7.45;5.65;;;3.90;99.90;;;;;;5053176;28;20738;-68
2022/04/09 07:20:18;;;;;;;6.75;5.10;;;4.00;99.90;;;;;;5052835;28;20672;-68
2022/04/09 07:22:45;;;;;;;6.65;5.03;;;4.10;99.90;;;;;;5053571;28;20231;-69
2022/04/09 07:25:13;;;;;;;8.93;5.57;;;4.20;99.90;;;;;;5053641;28;20205;-69
2022/04/09 07:27:41;;;;;;;7.10;5.03;;;4.30;99.90;;;;;;5052330;28;20657;-69
2022/04/09 07:30:10;;;;;;;6.38;5.53;;;4.50;99.90;;;;;;5053512;28;20664;-68
2022/04/09 07:32:37;;;;;;;7.35;5.20;;;4.60;99.90;;;;;;5052846;28;20205;-69
2022/04/09 07:35:06;;;;;;;8.48;5.68;;;4.70;99.90;;;;;;5052975;28;20283;-69
2022/04/09 07:37:33;;;;;;;6.32;5.28;;;4.80;99.90;;;;;;5051644;28;20240;-69
2022/04/09 07:40:00;;;;;;;10.52;4.90;;;4.70;99.90;;;;;;5053026;28;20231;-68
2022/04/09 07:42:28;;;;;;;9.85;5.38;;;4.80;99.90;;;;;;5052386;28;20236;-68
2022/04/09 07:44:54;;;;;;;7.00;5.40;;;5.00;99.90;;;;;;5052461;28;20752;-68
2022/04/09 07:47:21;;;;;;;6.50;4.63;;;5.00;99.90;;;;;;5052279;28;20213;-68
2022/04/09 07:49:49;;;;;;;4.80;4.40;;;5.30;99.90;;;;;;5052281;28;20204;-68
2022/04/09 07:52:15;;;;;;;5.18;4.60;;;5.70;99.90;;;;;;5052683;28;20209;-68
2022/04/09 07:54:42;;;;;;;6.65;5.07;;;6.20;99.90;;;;;;5053136;28;20203;-69
2022/04/09 07:57:09;;;;;;;6.15;4.70;;;6.30;99.90;;;;;;5051419;28;20225;-69
2022/04/09 07:59:37;;;;;;;7.85;4.68;;;6.30;99.90;;;;;;5052594;28;20212;-70
2022/04/09 08:02:04;;;;;;;8.73;3.95;;;6.50;99.90;;;;;;5052436;28;20201;-69
2022/04/09 08:04:31;;;;;;;4.57;4.18;;;7.00;99.90;;;;;;5051218;28;20209;-68
2022/04/09 08:06:58;;;;;;;6.22;4.25;;;7.10;99.90;;;;;;5051817;28;20217;-69
2022/04/09 08:09:24;;;;;;;5.50;3.70;;;7.40;99.90;;;;;;5052085;28;20201;-69
2022/04/09 08:11:53;;;;;;;5.50;4.22;;;7.60;99.90;;;;;;5046528;28;20193;-69
2022/04/09 08:14:19;;;;;;;8.05;4.00;;;7.10;99.90;;;;;;5040958;28;20592;-70
2022/04/09 08:16:47;;;;;;;4.82;3.83;;;6.60;99.90;;;;;;5040945;28;20213;-68
2022/04/09 08:19:14;;;;;;;7.72;3.80;;;6.20;99.90;;;;;;5042194;28;20225;-68
2022/04/09 08:21:41;;;;;;;4.60;4.00;;;6.00;99.90;;;;;;5041303;28;20197;-70
2022/04/09 08:24:09;;;;;;;4.97;4.05;;;5.80;99.90;;;;;;5041499;28;20197;-69
2022/04/09 08:26:35;;;;;;;6.82;3.70;;;5.70;99.90;;;;;;5050357;28;20213;-69
2022/04/09 08:29:03;;;;;;;5.45;3.95;;;5.70;99.90;;;;;;5052135;28;20689;-69
2022/04/09 08:31:29;;;;;;;4.47;3.40;;;5.80;99.90;;;;;;5051729;28;20205;-69
2022/04/09 08:33:58;;;;;;;4.88;4.38;;;5.70;99.90;;;;;;5051798;28;20205;-69
2022/04/09 08:36:24;;;;;;;4.90;3.90;;;5.50;99.90;;;;;;5051648;28;20225;-70
2022/04/09 08:38:51;;;;;;;4.78;3.45;;;5.50;99.90;;;;;;5051643;28;20209;-70
2022/04/09 08:41:20;;;;;;;4.53;3.47;;;5.50;99.90;;;;;;5051254;28;20212;-69
2022/04/09 08:43:47;;;;;;;5.35;4.10;;;5.60;99.90;;;;;;5051837;28;20592;-70
2022/04/09 08:46:13;;;;;;;6.60;4.40;;;5.60;99.90;;;;;;5051672;28;20233;-69
2022/04/09 08:48:42;;;;;;;9.25;3.30;;;5.80;99.90;;;;;;5050431;28;20312;-68
2022/04/09 08:51:10;;;;;;;11.20;4.00;;;5.80;99.90;;;;;;5051954;28;20212;-69
2022/04/09 08:53:39;;;;;;;8.45;4.22;;;5.90;99.90;;;;;;5051235;28;20591;-70
2022/04/09 08:56:06;;;;;;;5.63;3.70;;;5.90;99.90;;;;;;5051987;28;20247;-70
2022/04/09 08:58:33;;;;;;;4.07;3.67;;;5.90;99.90;;;;;;5053036;28;20260;-69
2022/04/09 09:00:59;;;;;;;6.05;4.03;;;5.90;99.90;;;;;;5052663;28;20205;-69
2022/04/09 09:03:26;;;;;;;5.30;3.90;;;5.70;99.90;;;;;;5049546;28;20198;-69
2022/04/09 09:05:53;;;;;;;7.88;3.63;;;5.70;99.90;;;;;;5049479;28;20241;-70
2022/04/09 09:08:37;;;;;;;8.75;3.78;;;5.60;99.90;;;;;;5050261;28;20575;-68
2022/04/09 09:11:05;;;;;;;6.82;3.47;;;5.50;99.90;;;;;;5050317;28;20208;-68
2022/04/09 09:13:46;;;;;;;10.07;4.40;;;5.60;99.90;;;;;;5048417;28;20813;-69
2022/04/09 09:16:23;;;;;;;9.85;4.00;;;5.70;99.90;;;;;;5050559;28;20240;-68
2022/04/09 09:18:52;;;;;;;7.07;3.85;;;5.80;99.90;;;;;;5049327;28;20699;-70
2022/04/09 09:21:23;;;;;;;4.68;3.30;;;5.80;99.90;;;;;;5050281;28;20744;-70
2022/04/09 09:23:52;;;;;;;3.75;3.45;;;5.80;99.90;;;;;;5051253;28;20201;-71
2022/04/09 09:26:23;;;;;;;7.13;3.72;;;5.90;99.90;;;;;;5049853;28;20228;-70
2022/04/09 09:28:56;;;;;;;5.10;3.30;;;6.00;99.90;;;;;;5050451;28;20201;-70
2022/04/09 09:31:44;;;;;;;7.50;3.75;;;6.00;99.90;;;;;;5051403;28;20220;-71
2022/04/09 09:34:12;;;;;;;7.57;3.70;;;6.00;99.90;;;;;;5051705;28;20205;-70
2022/04/09 09:36:40;;;;;;;13.82;4.40;;;6.50;99.90;;;;;;5051442;28;20584;-70
2022/04/09 09:39:09;;;;;;;7.95;3.05;;;7.40;99.90;;;;;;5052099;28;20201;-70
2022/04/09 09:41:47;;;;;;;5.55;3.20;;;8.40;99.90;;;;;;5051350;28;20225;-71
2022/04/09 09:44:14;;;;;;;4.10;2.83;;;10.10;99.90;;;;;;5052957;28;20319;-69
2022/04/09 09:46:42;;;;;;;6.30;3.10;;;11.30;99.20;;;;;;5051943;28;20232;-70
2022/04/09 09:49:08;;;;;;;5.78;2.85;;;12.20;96.70;;;;;;5051562;28;20251;-69
2022/04/09 09:51:36;;;;;;;4.63;2.70;;;12.70;95.00;;;;;;5051037;28;20209;-69
2022/04/09 09:54:05;;;;;;;3.75;2.42;;;13.20;94.40;;;;;;5051595;28;20623;-71
2022/04/09 09:56:36;;;;;;;5.40;3.17;;;13.70;93.20;;;;;;5050239;28;20919;-71
2022/04/09 09:59:05;;;;;;;4.60;2.53;;;14.50;92.60;;;;;;5050927;28;20209;-69
2022/04/09 10:01:32;;;;;;;4.88;2.80;;;14.50;90.30;;;;;;5049829;28;20569;-69
2022/04/09 10:04:00;;;;;;;5.22;2.40;;;14.10;91.70;;;;;;5050142;28;20296;-70
2022/04/09 10:06:29;;;;;;;3.25;2.33;;;14.10;89.60;;;;;;5049805;28;20221;-70
2022/04/09 10:08:56;;;;;;;4.40;2.50;;;13.80;90.60;;;;;;5049512;28;20197;-69
2022/04/09 10:11:23;;;;;;;4.85;2.20;;;14.10;91.00;;;;;;5049782;28;20447;-69
2022/04/09 10:13:55;;;;;;;4.38;2.60;;;14.60;91.00;;;;;;5040179;28;20296;-69
2022/04/09 10:16:24;;;;;;;3.35;1.98;;;15.20;88.00;;;;;;5038400;28;20236;-70
2022/04/09 10:18:51;;;;;;;5.83;2.67;;;16.00;89.00;;;;;;5037080;28;20630;-69
2022/04/09 10:21:19;;;;;;;6.77;2.60;;;16.70;89.30;;;;;;5037832;28;20460;-69
2022/04/09 10:23:48;;;;;;;5.87;2.27;;;17.30;86.00;;;;;;5038949;28;21065;-70
2022/04/09 10:26:17;;;;;;;5.10;2.80;;;16.80;84.80;;;;;;5039963;28;20849;-68
2022/04/09 10:28:47;;;;;;;7.00;2.50;;;15.80;86.40;;;;;;5039800;28;20463;-68
2022/04/09 10:31:34;;;;;;;5.43;2.70;;;15.10;86.40;;;;;;5038659;28;20952;-68
2022/04/09 10:34:02;;;;;;;3.92;2.40;;;14.50;85.60;;;;;;5040304;28;20496;-69
2022/04/09 10:37:06;;;;;;;3.65;2.53;;;14.10;88.20;;;;;;5044020;28;20220;-67
2022/04/09 10:39:45;;;;;;;4.18;2.40;;;14.30;85.80;;;;;;5044628;28;20228;-70
2022/04/09 10:42:51;;;;;;;5.43;2.73;;;14.80;86.90;;;;;;5052118;28;20627;-69
2022/04/09 10:45:18;;;;;;;3.97;2.40;;;15.40;83.90;;;;;;5049866;28;20542;-68
2022/04/09 10:48:10;;;;;;;5.00;2.30;;;15.20;85.60;;;;;;5048024;28;20966;-70
2022/04/09 10:50:57;;;;;;;4.13;2.13;;;14.50;85.10;;;;;;5048691;28;20467;-69
2022/04/09 10:53:26;;;;;;;4.63;2.50;;;13.80;86.10;;;;;;5047097;28;20499;-70
2022/04/09 10:56:20;;;;;;;3.33;1.85;;;13.60;85.60;;;;;;5048598;28;20220;-68
2022/04/09 10:59:08;;;;;;;4.97;2.38;;;13.10;83.70;;;;;;5047931;28;20228;-68
2022/04/09 11:01:54;;;;;;;4.53;2.30;;;12.20;84.50;;;;;;5048889;28;20205;-69
2022/04/09 11:04:44;;;;;;;4.40;2.92;;;11.30;88.10;;;;;;5048344;28;20224;-69
2022/04/09 11:07:16;;;;;;;7.03;2.53;;;10.50;90.20;;;;;;5046623;28;20308;-69
2022/04/09 11:09:53;;;;;;;4.30;2.67;;;10.50;91.40;;;;;;5048461;28;20220;-69
2022/04/09 11:12:22;;;;;;;7.32;2.83;;;11.40;90.00;;;;;;5047919;28;20205;-68
2022/04/09 11:14:51;;;;;;;3.25;2.28;;;12.10;87.40;;;;;;5047579;28;20208;-68
2022/04/09 11:17:36;;;;;;;5.43;2.50;;;11.70;86.80;;;;;;5043996;28;20224;-71
2022/04/09 11:20:10;;;;;;;4.00;2.38;;;10.90;89.30;;;;;;5046853;28;20213;-71
2022/04/09 11:22:39;;;;;;;5.70;2.65;;;10.60;90.40;;;;;;5047274;28;20223;-72
2022/04/09 11:25:07;;;;;;;8.52;3.35;;;11.90;90.00;;;;;;5047241;28;20579;-72
2022/04/09 11:27:34;;;;;;;3.00;2.10;;;13.20;86.10;;;;;;5046851;28;20232;-72
2022/04/09 11:30:01;;;;;;;13.95;3.33;;;13.40;86.20;;;;;;5047929;28;20201;-73
2022/04/09 11:32:32;;;;;;;6.63;2.78;;;13.60;85.90;;;;;;5046919;28;20193;-71
2022/04/09 11:34:59;;;;;;;5.45;2.25;;;14.30;83.90;;;;;;5047420;28;20243;-71
2022/04/09 11:37:30;;;;;;;5.53;2.37;;;15.10;81.40;;;;;;5046861;28;20331;-71
2022/04/09 11:39:58;;;;;;;3.55;2.05;;;14.70;82.00;;;;;;5049441;28;20463;-72
2022/04/09 11:42:25;;;;;;;6.50;2.63;;;14.50;85.10;;;;;;5049145;28;20589;-73
2022/04/09 11:44:52;;;;;;;4.20;2.30;;;14.50;83.50;;;;;;5049144;28;20197;-72
2022/04/09 11:47:23;;;;;;;3.70;2.30;;;14.60;83.00;;;;;;5050057;28;20479;-72
2022/04/09 11:49:50;;;;;;;2.90;2.37;;;14.00;83.20;;;;;;5049375;28;20470;-72
2022/04/09 11:52:27;;;;;;;6.73;3.10;;;14.20;83.70;;;;;;5050164;28;20463;-72
2022/04/09 11:54:55;;;;;;;4.20;1.97;;;14.50;84.30;;;;;;5050101;28;20485;-71
2022/04/09 11:57:23;;;;;;;3.87;2.53;;;14.30;81.00;;;;;;5128331;22;20800;-72
2022/04/09 11:59:54;;;;;;;4.10;2.17;;;13.60;81.70;;;;;;5066531;28;20458;-72
2022/04/09 12:02:24;;;;;;;3.47;2.38;;;13.50;80.00;;;;;;5070088;28;20863;-72
2022/04/09 12:04:52;;;;;;;4.30;2.03;;;13.60;80.90;;;;;;5068982;28;20844;-72
2022/04/09 12:07:19;;;;;;;4.40;2.30;;;14.00;81.00;;;;;;5052535;28;20482;-72
2022/04/09 12:09:48;;;;;;;2.63;2.00;;;14.30;81.70;;;;;;5049061;28;20465;-72
2022/04/09 12:12:17;;;;;;;4.65;2.30;;;13.90;82.80;;;;;;5049706;28;20201;-72
2022/04/09 12:14:53;;;;;;;3.20;2.10;;;14.00;83.60;;;;;;5049482;28;20206;-73
2022/04/09 12:17:22;;;;;;;4.10;1.93;;;14.60;78.90;;;;;;5048970;28;21250;-73
2022/04/09 12:19:50;;;;;;;5.00;1.93;;;15.10;79.00;;;;;;5048074;28;20963;-73
2022/04/09 12:22:19;;;;;;;4.10;2.30;;;14.20;77.30;;;;;;5049301;28;20472;-73
2022/04/09 12:24:54;;;;;;;4.18;2.15;;;13.30;80.50;;;;;;5049397;28;20467;-73
2022/04/09 12:27:22;;;;;;;5.00;2.25;;;12.70;85.20;;;;;;5048813;28;20223;-73
2022/04/09 12:29:51;;;;;;;5.33;2.50;;;13.30;83.00;;;;;;5046321;28;20193;-73
2022/04/09 12:32:23;;;;;;;5.05;2.65;;;14.20;80.10;;;;;;5049644;28;20459;-73
2022/04/09 12:34:55;;;;;;;3.72;2.13;;;14.30;78.90;;;;;;5047609;28;20759;-73
2022/04/09 12:37:22;;;;;;;2.63;2.22;;;13.40;79.60;;;;;;5048563;28;20722;-72
2022/04/09 12:39:51;;;;;;;2.75;2.15;;;13.50;80.20;;;;;;5048671;28;20200;-72
2022/04/09 12:42:30;;;;;;;4.88;2.55;;;14.10;82.00;;;;;;5048361;28;20197;-73
2022/04/09 12:45:11;;;;;;;3.77;2.00;;;14.40;78.50;;;;;;5044987;28;20263;-73
2022/04/09 12:47:38;;;;;;;5.63;2.30;;;14.40;75.50;;;;;;5045865;28;20503;-74
2022/04/09 12:50:06;;;;;;;6.23;2.77;;;14.90;81.30;;;;;;5046725;28;20817;-73
2022/04/09 12:52:33;;;;;;;6.70;2.37;;;15.70;79.00;;;;;;5042945;28;20559;-72
2022/04/09 12:55:01;;;;;;;5.00;2.77;;;16.20;76.40;;;;;;5046096;28;20470;-72
2022/04/09 12:57:29;;;;;;;3.73;2.10;;;16.20;75.50;;;;;;5048652;28;20483;-73
2022/04/09 12:59:56;;;;;;;2.10;1.67;;;16.10;75.70;;;;;;5046581;28;20460;-73